Aérodrome :
LOGIN :

S'inscrire | Disclaimer

   EN    FR    IT 

 










Légende :    VFR   VFR Marginal   IFR   IFR Intensif   IFR Très Intensif
Visi : 
Plafond : 
>= 8 km
>= 3000ft
5 à 8 km
1000 à 3000 ft
1500m à 5 km
500 à 1000 ft
800 à 1500m
200 à 500 ft
< 800m
< 200 ft
Symboles :   Orages  Brouillard  Fortes neiges  Fortes précipitations  Vent > 20 kt
SIGMETs :   Divers  Orages  Givrage  Turbulence  Onde Orograph.  Cendres Volcan.






- Altitude de l'aérodrome : 290 ft
- Code IATA : OSI


LDOS - Osijek

DERNIER METAR :
  • 020700Z 04002KT CAVOK 08/07 Q1010

METARs EXPIRÉS :
  • 020630Z 00000KT CAVOK 07/06 Q1010
  • 020600Z 29002KT CAVOK 06/05 Q1009
  • 020530Z 00000KT CAVOK 06/05 Q1009
  • 020500Z VRB01KT CAVOK 07/05 Q1009
  • 020430Z 22001KT CAVOK 06/05 Q1009
  • 012100Z 04006KT CAVOK 10/07 Q1008
  • 020400Z 13002KT CAVOK 07/05 Q1009
  • 020330Z 12002KT CAVOK 07/05 Q1009
  • 020300Z 09003KT CAVOK 07/05 Q1008
  • 020230Z 09003KT CAVOK 07/05 Q1008
  • 020200Z 07002KT CAVOK 07/05 Q1009

TAF TAF LDOS
Valide du 02 à 06h jusqu'au 03 à 06h UTC


020525Z 0206/0306 VRB02KT 9999 FEW035 TX17/0213Z TN06/0305Z
TEMPO 0216/0222 11006KT



MET'MAP, la Météo Aéronautique d'un coup d'oeil ! - Copyright ORBIFLY Décembre 2007 - Disclaimer

ORBIFLY MET'MAP TEAM :

Programmation & Développement : Alexandra Zaïnal
Sur une idée originale de : Baudouin d'Aumeries
Soutien technique & logistique : Manuel Goepfert
Assistance : Marc-Olivier Méhu




SOURCES & CREDITS :

   NOAA